Portada
METAR-TAF:

METAR-TAF

Aeroports :

Franklin County Airport

Louisburg, Carolina del Nord, Estats Units d'Amèrica

latitud: 36-01-24N, longitud: 078-19-49W, altitud: 113 m

Observació

L'informe es va fer fa 18 minuts, a les 00:55 UTC
Vent 4 kt del Sud
Temperatura 22°C
Humitat 94%
Pressió 1017 hPa
Visibilitat: 11.3 km
Cel clar

METAR: KLHZ 110055Z AUTO 17004KT 7SM CLR 22/21 A3002 RMK AO2

Hora: 21:13 (01:13 UTC)


TAF: manca

Observacions i pronòstics meteorològics de més de 4000 aeroports (METAR i TAF).

Les estacions disponibles són els punts grocs i vermells al mapa.

Posi el ratolí al punt desitjat per veure el nom de l'estació.

Feu clic per veure les observacions i els pronòstics meteorològics.

Per canviar el mapa: feu clic els botons verds amb una creu de color negre per apropar; al botó verd amb un guió per allunyar la imatge; o en les fletxes verdes per a mapes adjacents.


METAR-TAF: